sensor_id;sensor_type;location;lat;lon;timestamp;P1;durP1;ratioP1;P2;durP2;ratioP2
15637;SDS011;26604;53.596;10.042;2022-11-14T00:01:43;9.73;;;5.55;;
15637;SDS011;26604;53.596;10.042;2022-11-14T00:04:10;10.70;;;5.22;;
15637;SDS011;26604;53.596;10.042;2022-11-14T00:06:38;9.43;;;5.93;;
15637;SDS011;26604;53.596;10.042;2022-11-14T00:09:05;10.48;;;5.57;;
15637;SDS011;26604;53.596;10.042;2022-11-14T00:11:31;9.13;;;5.90;;
15637;SDS011;26604;53.596;10.042;2022-11-14T00:13:58;11.20;;;5.97;;
15637;SDS011;26604;53.596;10.042;2022-11-14T00:16:25;9.75;;;5.40;;
15637;SDS011;26604;53.596;10.042;2022-11-14T00:18:52;10.68;;;6.18;;
15637;SDS011;26604;53.596;10.042;2022-11-14T00:21:19;10.55;;;5.40;;
15637;SDS011;26604;53.596;10.042;2022-11-14T00:23:47;8.98;;;5.95;;
15637;SDS011;26604;53.596;10.042;2022-11-14T00:26:14;8.48;;;5.20;;
15637;SDS011;26604;53.596;10.042;2022-11-14T00:28:41;12.70;;;5.90;;
15637;SDS011;26604;53.596;10.042;2022-11-14T00:31:08;9.82;;;5.53;;
15637;SDS011;26604;53.596;10.042;2022-11-14T00:33:35;10.77;;;5.55;;
15637;SDS011;26604;53.596;10.042;2022-11-14T00:36:03;9.90;;;5.25;;
15637;SDS011;26604;53.596;10.042;2022-11-14T00:38:30;7.35;;;5.22;;
15637;SDS011;26604;53.596;10.042;2022-11-14T00:40:58;9.52;;;5.63;;
15637;SDS011;26604;53.596;10.042;2022-11-14T00:43:25;10.70;;;5.75;;
15637;SDS011;26604;53.596;10.042;2022-11-14T00:45:52;9.23;;;5.60;;
15637;SDS011;26604;53.596;10.042;2022-11-14T00:48:19;9.52;;;5.60;;
15637;SDS011;26604;53.596;10.042;2022-11-14T00:50:46;8.95;;;5.65;;
15637;SDS011;26604;53.596;10.042;2022-11-14T00:53:13;11.82;;;5.22;;
15637;SDS011;26604;53.596;10.042;2022-11-14T00:55:39;10.90;;;5.72;;
15637;SDS011;26604;53.596;10.042;2022-11-14T00:58:09;8.48;;;5.63;;
15637;SDS011;26604;53.596;10.042;2022-11-14T01:00:36;8.27;;;5.28;;
15637;SDS011;26604;53.596;10.042;2022-11-14T01:03:03;8.63;;;5.00;;
15637;SDS011;26604;53.596;10.042;2022-11-14T01:05:30;7.18;;;5.07;;
15637;SDS011;26604;53.596;10.042;2022-11-14T01:07:57;7.72;;;4.85;;
15637;SDS011;26604;53.596;10.042;2022-11-14T01:10:24;8.48;;;5.60;;
15637;SDS011;26604;53.596;10.042;2022-11-14T01:12:50;12.25;;;6.55;;
15637;SDS011;26604;53.596;10.042;2022-11-14T01:15:19;10.65;;;5.72;;
15637;SDS011;26604;53.596;10.042;2022-11-14T01:17:45;10.25;;;5.50;;
15637;SDS011;26604;53.596;10.042;2022-11-14T01:20:13;8.98;;;5.63;;
15637;SDS011;26604;53.596;10.042;2022-11-14T01:22:40;7.05;;;5.00;;
15637;SDS011;26604;53.596;10.042;2022-11-14T01:25:07;8.35;;;5.63;;
15637;SDS011;26604;53.596;10.042;2022-11-14T01:27:34;8.02;;;5.63;;
15637;SDS011;26604;53.596;10.042;2022-11-14T01:30:01;8.27;;;5.38;;
15637;SDS011;26604;53.596;10.042;2022-11-14T01:32:29;11.65;;;5.68;;
15637;SDS011;26604;53.596;10.042;2022-11-14T01:34:56;10.15;;;5.85;;
15637;SDS011;26604;53.596;10.042;2022-11-14T01:37:23;7.55;;;5.45;;
15637;SDS011;26604;53.596;10.042;2022-11-14T01:39:50;9.55;;;5.97;;
15637;SDS011;26604;53.596;10.042;2022-11-14T01:42:17;10.77;;;5.65;;
15637;SDS011;26604;53.596;10.042;2022-11-14T01:44:45;7.95;;;5.70;;
15637;SDS011;26604;53.596;10.042;2022-11-14T01:47:15;9.70;;;6.35;;
15637;SDS011;26604;53.596;10.042;2022-11-14T01:49:46;9.52;;;5.47;;
15637;SDS011;26604;53.596;10.042;2022-11-14T01:52:16;9.57;;;5.68;;
15637;SDS011;26604;53.596;10.042;2022-11-14T01:54:47;7.95;;;5.38;;
15637;SDS011;26604;53.596;10.042;2022-11-14T01:57:17;10.52;;;5.75;;
15637;SDS011;26604;53.596;10.042;2022-11-14T01:59:50;10.30;;;6.13;;
15637;SDS011;26604;53.596;10.042;2022-11-14T02:02:20;8.55;;;5.40;;
15637;SDS011;26604;53.596;10.042;2022-11-14T02:04:52;8.07;;;5.75;;
15637;SDS011;26604;53.596;10.042;2022-11-14T02:07:23;8.43;;;6.00;;
15637;SDS011;26604;53.596;10.042;2022-11-14T02:09:53;8.20;;;5.55;;
15637;SDS011;26604;53.596;10.042;2022-11-14T02:12:20;11.43;;;5.90;;
15637;SDS011;26604;53.596;10.042;2022-11-14T02:14:50;7.35;;;5.28;;
15637;SDS011;26604;53.596;10.042;2022-11-14T02:17:21;9.43;;;5.82;;
15637;SDS011;26604;53.596;10.042;2022-11-14T02:19:51;8.32;;;5.85;;
15637;SDS011;26604;53.596;10.042;2022-11-14T02:22:23;9.02;;;6.07;;
15637;SDS011;26604;53.596;10.042;2022-11-14T02:24:49;8.00;;;5.65;;
15637;SDS011;26604;53.596;10.042;2022-11-14T02:27:16;8.57;;;5.35;;
15637;SDS011;26604;53.596;10.042;2022-11-14T02:29:43;9.95;;;5.75;;
15637;SDS011;26604;53.596;10.042;2022-11-14T02:32:10;8.55;;;5.80;;
15637;SDS011;26604;53.596;10.042;2022-11-14T02:34:37;9.43;;;6.22;;
15637;SDS011;26604;53.596;10.042;2022-11-14T02:37:04;8.38;;;5.80;;
15637;SDS011;26604;53.596;10.042;2022-11-14T02:39:33;9.38;;;6.28;;
15637;SDS011;26604;53.596;10.042;2022-11-14T02:42:00;9.60;;;6.10;;
15637;SDS011;26604;53.596;10.042;2022-11-14T02:44:27;11.23;;;6.03;;
15637;SDS011;26604;53.596;10.042;2022-11-14T02:46:54;10.75;;;6.13;;
15637;SDS011;26604;53.596;10.042;2022-11-14T02:49:20;8.20;;;5.22;;
15637;SDS011;26604;53.596;10.042;2022-11-14T02:51:47;7.43;;;5.35;;
15637;SDS011;26604;53.596;10.042;2022-11-14T02:54:14;7.63;;;5.57;;
15637;SDS011;26604;53.596;10.042;2022-11-14T02:56:42;8.18;;;5.70;;
15637;SDS011;26604;53.596;10.042;2022-11-14T02:59:09;8.25;;;5.38;;
15637;SDS011;26604;53.596;10.042;2022-11-14T03:01:36;7.78;;;5.85;;
15637;SDS011;26604;53.596;10.042;2022-11-14T03:04:03;7.40;;;5.57;;
15637;SDS011;26604;53.596;10.042;2022-11-14T03:06:30;8.77;;;5.90;;
15637;SDS011;26604;53.596;10.042;2022-11-14T03:08:57;9.02;;;6.20;;
15637;SDS011;26604;53.596;10.042;2022-11-14T03:11:24;9.18;;;5.75;;
15637;SDS011;26604;53.596;10.042;2022-11-14T03:13:52;7.32;;;5.35;;
15637;SDS011;26604;53.596;10.042;2022-11-14T03:16:19;6.97;;;5.47;;
15637;SDS011;26604;53.596;10.042;2022-11-14T03:18:46;7.70;;;5.57;;
15637;SDS011;26604;53.596;10.042;2022-11-14T03:21:13;9.73;;;5.70;;
15637;SDS011;26604;53.596;10.042;2022-11-14T03:23:41;8.45;;;5.72;;
15637;SDS011;26604;53.596;10.042;2022-11-14T03:26:09;8.18;;;5.82;;
15637;SDS011;26604;53.596;10.042;2022-11-14T03:28:36;8.13;;;5.35;;
15637;SDS011;26604;53.596;10.042;2022-11-14T03:31:05;9.35;;;5.90;;
15637;SDS011;26604;53.596;10.042;2022-11-14T03:33:33;7.93;;;5.57;;
15637;SDS011;26604;53.596;10.042;2022-11-14T03:36:01;7.40;;;5.53;;
15637;SDS011;26604;53.596;10.042;2022-11-14T03:38:28;8.13;;;5.45;;
15637;SDS011;26604;53.596;10.042;2022-11-14T03:40:56;9.40;;;5.45;;
15637;SDS011;26604;53.596;10.042;2022-11-14T03:43:24;8.27;;;6.25;;
15637;SDS011;26604;53.596;10.042;2022-11-14T03:45:51;7.25;;;5.50;;
15637;SDS011;26604;53.596;10.042;2022-11-14T03:48:20;9.45;;;5.97;;
15637;SDS011;26604;53.596;10.042;2022-11-14T03:50:46;8.77;;;5.57;;
15637;SDS011;26604;53.596;10.042;2022-11-14T03:53:13;9.02;;;6.10;;
15637;SDS011;26604;53.596;10.042;2022-11-14T03:55:41;8.93;;;5.78;;
15637;SDS011;26604;53.596;10.042;2022-11-14T03:58:08;8.13;;;6.30;;
15637;SDS011;26604;53.596;10.042;2022-11-14T04:00:35;8.32;;;6.15;;
15637;SDS011;26604;53.596;10.042;2022-11-14T04:03:03;8.73;;;6.28;;
15637;SDS011;26604;53.596;10.042;2022-11-14T04:05:31;8.52;;;5.50;;
15637;SDS011;26604;53.596;10.042;2022-11-14T04:07:58;10.05;;;6.20;;
15637;SDS011;26604;53.596;10.042;2022-11-14T04:10:25;7.22;;;5.05;;
15637;SDS011;26604;53.596;10.042;2022-11-14T04:12:52;7.70;;;5.20;;
15637;SDS011;26604;53.596;10.042;2022-11-14T04:15:19;7.72;;;5.78;;
15637;SDS011;26604;53.596;10.042;2022-11-14T04:17:46;8.85;;;5.45;;
15637;SDS011;26604;53.596;10.042;2022-11-14T04:20:13;8.73;;;5.80;;
15637;SDS011;26604;53.596;10.042;2022-11-14T04:22:42;7.85;;;5.47;;
15637;SDS011;26604;53.596;10.042;2022-11-14T04:25:10;9.00;;;6.22;;
15637;SDS011;26604;53.596;10.042;2022-11-14T04:27:37;8.30;;;5.60;;
15637;SDS011;26604;53.596;10.042;2022-11-14T04:30:05;8.57;;;6.18;;
15637;SDS011;26604;53.596;10.042;2022-11-14T04:32:32;7.38;;;5.65;;
15637;SDS011;26604;53.596;10.042;2022-11-14T04:34:59;7.50;;;5.93;;
15637;SDS011;26604;53.596;10.042;2022-11-14T04:37:26;9.68;;;6.25;;
15637;SDS011;26604;53.596;10.042;2022-11-14T04:39:54;7.80;;;6.00;;
15637;SDS011;26604;53.596;10.042;2022-11-14T04:42:24;8.25;;;6.10;;
15637;SDS011;26604;53.596;10.042;2022-11-14T04:44:51;7.65;;;5.65;;
15637;SDS011;26604;53.596;10.042;2022-11-14T04:47:18;9.00;;;6.28;;
15637;SDS011;26604;53.596;10.042;2022-11-14T04:49:45;8.52;;;5.82;;
15637;SDS011;26604;53.596;10.042;2022-11-14T04:52:12;8.85;;;5.43;;
15637;SDS011;26604;53.596;10.042;2022-11-14T04:54:38;8.55;;;5.70;;
15637;SDS011;26604;53.596;10.042;2022-11-14T04:57:07;9.23;;;6.82;;
15637;SDS011;26604;53.596;10.042;2022-11-14T04:59:34;7.85;;;5.50;;
15637;SDS011;26604;53.596;10.042;2022-11-14T05:02:00;8.82;;;6.13;;
15637;SDS011;26604;53.596;10.042;2022-11-14T05:04:27;8.65;;;5.93;;
15637;SDS011;26604;53.596;10.042;2022-11-14T05:06:55;9.70;;;6.05;;
15637;SDS011;26604;53.596;10.042;2022-11-14T05:09:21;7.05;;;5.95;;
15637;SDS011;26604;53.596;10.042;2022-11-14T05:11:48;7.75;;;5.72;;
15637;SDS011;26604;53.596;10.042;2022-11-14T05:14:16;8.82;;;5.95;;
15637;SDS011;26604;53.596;10.042;2022-11-14T05:16:43;8.65;;;6.00;;
15637;SDS011;26604;53.596;10.042;2022-11-14T05:19:10;8.40;;;6.35;;
15637;SDS011;26604;53.596;10.042;2022-11-14T05:21:37;7.90;;;5.72;;
15637;SDS011;26604;53.596;10.042;2022-11-14T05:24:04;8.18;;;5.75;;
15637;SDS011;26604;53.596;10.042;2022-11-14T05:26:31;10.02;;;6.72;;
15637;SDS011;26604;53.596;10.042;2022-11-14T05:28:58;9.75;;;6.35;;
15637;SDS011;26604;53.596;10.042;2022-11-14T05:31:26;8.57;;;5.95;;
15637;SDS011;26604;53.596;10.042;2022-11-14T05:33:53;9.57;;;6.28;;
15637;SDS011;26604;53.596;10.042;2022-11-14T05:36:20;8.25;;;6.10;;
15637;SDS011;26604;53.596;10.042;2022-11-14T05:38:47;9.07;;;5.32;;
15637;SDS011;26604;53.596;10.042;2022-11-14T05:41:14;8.27;;;5.40;;
15637;SDS011;26604;53.596;10.042;2022-11-14T05:43:42;6.15;;;5.22;;
15637;SDS011;26604;53.596;10.042;2022-11-14T05:46:10;7.68;;;5.70;;
15637;SDS011;26604;53.596;10.042;2022-11-14T05:48:40;7.90;;;6.13;;
15637;SDS011;26604;53.596;10.042;2022-11-14T05:51:08;8.80;;;6.35;;
15637;SDS011;26604;53.596;10.042;2022-11-14T05:53:36;7.65;;;5.60;;
15637;SDS011;26604;53.596;10.042;2022-11-14T05:56:04;7.82;;;5.32;;
15637;SDS011;26604;53.596;10.042;2022-11-14T05:58:33;8.85;;;5.93;;
15637;SDS011;26604;53.596;10.042;2022-11-14T06:01:01;8.95;;;5.68;;
15637;SDS011;26604;53.596;10.042;2022-11-14T06:03:29;8.45;;;6.13;;
15637;SDS011;26604;53.596;10.042;2022-11-14T06:06:00;8.63;;;5.75;;
15637;SDS011;26604;53.596;10.042;2022-11-14T06:08:27;7.95;;;5.80;;
15637;SDS011;26604;53.596;10.042;2022-11-14T06:10:55;6.68;;;5.63;;
15637;SDS011;26604;53.596;10.042;2022-11-14T06:13:22;8.00;;;5.78;;
15637;SDS011;26604;53.596;10.042;2022-11-14T06:15:49;8.93;;;6.07;;
15637;SDS011;26604;53.596;10.042;2022-11-14T06:18:16;7.95;;;5.32;;
15637;SDS011;26604;53.596;10.042;2022-11-14T06:20:43;10.50;;;5.85;;
15637;SDS011;26604;53.596;10.042;2022-11-14T06:23:11;11.02;;;5.40;;
15637;SDS011;26604;53.596;10.042;2022-11-14T06:25:38;8.40;;;5.85;;
15637;SDS011;26604;53.596;10.042;2022-11-14T06:28:05;8.13;;;5.50;;
15637;SDS011;26604;53.596;10.042;2022-11-14T06:30:31;7.43;;;5.40;;
15637;SDS011;26604;53.596;10.042;2022-11-14T06:32:58;8.05;;;5.30;;
15637;SDS011;26604;53.596;10.042;2022-11-14T06:35:25;7.82;;;5.50;;
15637;SDS011;26604;53.596;10.042;2022-11-14T06:37:52;10.32;;;6.78;;
15637;SDS011;26604;53.596;10.042;2022-11-14T06:40:21;9.30;;;5.90;;
15637;SDS011;26604;53.596;10.042;2022-11-14T06:42:47;9.05;;;5.80;;
15637;SDS011;26604;53.596;10.042;2022-11-14T06:45:14;8.20;;;5.97;;
15637;SDS011;26604;53.596;10.042;2022-11-14T06:47:41;8.23;;;5.70;;
15637;SDS011;26604;53.596;10.042;2022-11-14T06:50:09;7.35;;;5.90;;
15637;SDS011;26604;53.596;10.042;2022-11-14T06:52:36;8.02;;;5.78;;
15637;SDS011;26604;53.596;10.042;2022-11-14T06:55:03;9.63;;;6.18;;
15637;SDS011;26604;53.596;10.042;2022-11-14T06:57:32;26.73;;;16.52;;
15637;SDS011;26604;53.596;10.042;2022-11-14T06:59:58;24.60;;;15.18;;
15637;SDS011;26604;53.596;10.042;2022-11-14T07:02:25;29.58;;;15.70;;
15637;SDS011;26604;53.596;10.042;2022-11-14T07:04:52;23.30;;;13.10;;
15637;SDS011;26604;53.596;10.042;2022-11-14T07:07:19;30.40;;;13.63;;
15637;SDS011;26604;53.596;10.042;2022-11-14T07:09:46;19.98;;;13.02;;
15637;SDS011;26604;53.596;10.042;2022-11-14T07:12:13;21.25;;;12.05;;
15637;SDS011;26604;53.596;10.042;2022-11-14T07:14:41;20.35;;;12.77;;
15637;SDS011;26604;53.596;10.042;2022-11-14T07:17:08;17.65;;;11.43;;
15637;SDS011;26604;53.596;10.042;2022-11-14T07:19:35;16.23;;;10.43;;
15637;SDS011;26604;53.596;10.042;2022-11-14T07:22:01;15.10;;;10.27;;
15637;SDS011;26604;53.596;10.042;2022-11-14T07:24:28;17.08;;;10.35;;
15637;SDS011;26604;53.596;10.042;2022-11-14T07:26:55;14.57;;;9.45;;
15637;SDS011;26604;53.596;10.042;2022-11-14T07:29:22;17.67;;;10.20;;
15637;SDS011;26604;53.596;10.042;2022-11-14T07:31:50;16.00;;;10.10;;
15637;SDS011;26604;53.596;10.042;2022-11-14T07:34:17;16.02;;;9.45;;
15637;SDS011;26604;53.596;10.042;2022-11-14T07:36:44;13.10;;;8.30;;
15637;SDS011;26604;53.596;10.042;2022-11-14T07:39:11;13.82;;;8.85;;
15637;SDS011;26604;53.596;10.042;2022-11-14T07:41:38;14.38;;;9.23;;
15637;SDS011;26604;53.596;10.042;2022-11-14T07:44:05;14.15;;;8.65;;
15637;SDS011;26604;53.596;10.042;2022-11-14T07:46:32;15.90;;;9.18;;
15637;SDS011;26604;53.596;10.042;2022-11-14T07:49:01;13.98;;;8.95;;
15637;SDS011;26604;53.596;10.042;2022-11-14T07:51:28;14.93;;;8.98;;
15637;SDS011;26604;53.596;10.042;2022-11-14T07:53:55;11.15;;;7.70;;
15637;SDS011;26604;53.596;10.042;2022-11-14T07:56:21;14.20;;;9.35;;
15637;SDS011;26604;53.596;10.042;2022-11-14T07:58:49;16.35;;;9.63;;
15637;SDS011;26604;53.596;10.042;2022-11-14T08:01:16;14.40;;;9.07;;
15637;SDS011;26604;53.596;10.042;2022-11-14T08:03:43;13.95;;;8.70;;
15637;SDS011;26604;53.596;10.042;2022-11-14T08:06:12;17.27;;;8.95;;
15637;SDS011;26604;53.596;10.042;2022-11-14T08:08:40;15.48;;;9.68;;
15637;SDS011;26604;53.596;10.042;2022-11-14T08:11:07;15.40;;;9.00;;
15637;SDS011;26604;53.596;10.042;2022-11-14T08:13:34;17.73;;;9.23;;
15637;SDS011;26604;53.596;10.042;2022-11-14T08:16:02;14.75;;;8.57;;
15637;SDS011;26604;53.596;10.042;2022-11-14T08:18:30;16.05;;;9.48;;
15637;SDS011;26604;53.596;10.042;2022-11-14T08:20:57;14.57;;;9.45;;
15637;SDS011;26604;53.596;10.042;2022-11-14T08:23:29;15.00;;;9.27;;
15637;SDS011;26604;53.596;10.042;2022-11-14T08:25:56;16.38;;;9.45;;
15637;SDS011;26604;53.596;10.042;2022-11-14T08:28:23;16.38;;;9.25;;
15637;SDS011;26604;53.596;10.042;2022-11-14T08:30:50;16.85;;;8.82;;
15637;SDS011;26604;53.596;10.042;2022-11-14T08:33:17;15.93;;;8.70;;
15637;SDS011;26604;53.596;10.042;2022-11-14T08:35:44;15.25;;;8.52;;
15637;SDS011;26604;53.596;10.042;2022-11-14T08:38:11;15.20;;;9.27;;
15637;SDS011;26604;53.596;10.042;2022-11-14T08:40:39;14.57;;;8.60;;
15637;SDS011;26604;53.596;10.042;2022-11-14T08:43:07;14.65;;;8.27;;
15637;SDS011;26604;53.596;10.042;2022-11-14T08:45:35;15.13;;;8.32;;
15637;SDS011;26604;53.596;10.042;2022-11-14T08:48:02;16.95;;;8.65;;
15637;SDS011;26604;53.596;10.042;2022-11-14T08:50:29;14.73;;;8.35;;
15637;SDS011;26604;53.596;10.042;2022-11-14T08:52:56;15.50;;;8.20;;
15637;SDS011;26604;53.596;10.042;2022-11-14T08:55:23;16.60;;;8.40;;
15637;SDS011;26604;53.596;10.042;2022-11-14T08:57:51;15.70;;;8.23;;
15637;SDS011;26604;53.596;10.042;2022-11-14T09:00:19;14.80;;;8.32;;
15637;SDS011;26604;53.596;10.042;2022-11-14T09:02:46;14.45;;;8.65;;
15637;SDS011;26604;53.596;10.042;2022-11-14T09:05:13;15.98;;;7.95;;
15637;SDS011;26604;53.596;10.042;2022-11-14T09:07:40;15.80;;;7.72;;
15637;SDS011;26604;53.596;10.042;2022-11-14T09:10:07;16.00;;;7.38;;
15637;SDS011;26604;53.596;10.042;2022-11-14T09:12:35;17.35;;;7.45;;
15637;SDS011;26604;53.596;10.042;2022-11-14T09:15:03;15.30;;;6.72;;
15637;SDS011;26604;53.596;10.042;2022-11-14T09:17:30;15.75;;;6.53;;
15637;SDS011;26604;53.596;10.042;2022-11-14T09:19:57;13.90;;;7.20;;
15637;SDS011;26604;53.596;10.042;2022-11-14T09:22:24;11.18;;;6.50;;
15637;SDS011;26604;53.596;10.042;2022-11-14T09:24:51;14.48;;;6.32;;
15637;SDS011;26604;53.596;10.042;2022-11-14T09:27:18;12.57;;;6.63;;
15637;SDS011;26604;53.596;10.042;2022-11-14T09:29:45;14.55;;;7.25;;
15637;SDS011;26604;53.596;10.042;2022-11-14T09:32:13;13.50;;;6.70;;
15637;SDS011;26604;53.596;10.042;2022-11-14T09:34:40;15.93;;;6.63;;
15637;SDS011;26604;53.596;10.042;2022-11-14T09:37:09;13.52;;;6.80;;
15637;SDS011;26604;53.596;10.042;2022-11-14T09:39:36;15.10;;;8.00;;
15637;SDS011;26604;53.596;10.042;2022-11-14T09:42:17;12.10;;;7.47;;
15637;SDS011;26604;53.596;10.042;2022-11-14T09:44:54;16.00;;;7.10;;
15637;SDS011;26604;53.596;10.042;2022-11-14T09:47:26;10.10;;;6.18;;
15637;SDS011;26604;53.596;10.042;2022-11-14T09:49:58;13.63;;;7.63;;
15637;SDS011;26604;53.596;10.042;2022-11-14T09:52:32;13.80;;;7.72;;
15637;SDS011;26604;53.596;10.042;2022-11-14T09:55:03;11.40;;;6.90;;
15637;SDS011;26604;53.596;10.042;2022-11-14T09:57:37;16.48;;;7.40;;
15637;SDS011;26604;53.596;10.042;2022-11-14T10:00:11;12.65;;;6.72;;
15637;SDS011;26604;53.596;10.042;2022-11-14T10:02:40;10.20;;;6.28;;
15637;SDS011;26604;53.596;10.042;2022-11-14T10:05:30;11.57;;;6.97;;
15637;SDS011;26604;53.596;10.042;2022-11-14T10:08:10;13.23;;;6.20;;
15637;SDS011;26604;53.596;10.042;2022-11-14T10:10:49;30.75;;;7.45;;
15637;SDS011;26604;53.596;10.042;2022-11-14T10:13:24;10.25;;;6.63;;
15637;SDS011;26604;53.596;10.042;2022-11-14T10:16:03;10.85;;;6.57;;
15637;SDS011;26604;53.596;10.042;2022-11-14T10:18:42;11.85;;;6.22;;
15637;SDS011;26604;53.596;10.042;2022-11-14T10:21:21;10.75;;;6.97;;
15637;SDS011;26604;53.596;10.042;2022-11-14T10:24:00;10.38;;;6.63;;
15637;SDS011;26604;53.596;10.042;2022-11-14T10:26:31;10.73;;;6.45;;
15637;SDS011;26604;53.596;10.042;2022-11-14T10:29:13;10.05;;;6.63;;
15637;SDS011;26604;53.596;10.042;2022-11-14T10:32:01;8.75;;;6.15;;
15637;SDS011;26604;53.596;10.042;2022-11-14T10:34:39;9.38;;;5.80;;
15637;SDS011;26604;53.596;10.042;2022-11-14T10:37:14;12.07;;;6.38;;
15637;SDS011;26604;53.596;10.042;2022-11-14T10:39:45;10.07;;;6.15;;
15637;SDS011;26604;53.596;10.042;2022-11-14T10:42:19;9.68;;;5.82;;
15637;SDS011;26604;53.596;10.042;2022-11-14T10:44:52;10.20;;;6.25;;
15637;SDS011;26604;53.596;10.042;2022-11-14T10:47:23;11.68;;;6.15;;
15637;SDS011;26604;53.596;10.042;2022-11-14T10:49:54;12.00;;;6.47;;
15637;SDS011;26604;53.596;10.042;2022-11-14T10:52:31;9.65;;;6.18;;
15637;SDS011;26604;53.596;10.042;2022-11-14T10:55:05;14.40;;;7.00;;
15637;SDS011;26604;53.596;10.042;2022-11-14T10:57:33;14.43;;;7.22;;
15637;SDS011;26604;53.596;10.042;2022-11-14T11:00:00;10.13;;;6.50;;
15637;SDS011;26604;53.596;10.042;2022-11-14T11:02:38;17.38;;;7.03;;
15637;SDS011;26604;53.596;10.042;2022-11-14T11:05:16;14.48;;;7.40;;
15637;SDS011;26604;53.596;10.042;2022-11-14T11:07:44;12.57;;;7.43;;
15637;SDS011;26604;53.596;10.042;2022-11-14T11:10:30;9.77;;;6.63;;
15637;SDS011;26604;53.596;10.042;2022-11-14T11:13:26;11.30;;;6.82;;
15637;SDS011;26604;53.596;10.042;2022-11-14T11:15:56;12.23;;;7.22;;
15637;SDS011;26604;53.596;10.042;2022-11-14T11:18:26;12.13;;;6.57;;
15637;SDS011;26604;53.596;10.042;2022-11-14T11:21:03;11.27;;;7.43;;
15637;SDS011;26604;53.596;10.042;2022-11-14T11:23:32;12.15;;;6.95;;
15637;SDS011;26604;53.596;10.042;2022-11-14T11:26:01;10.85;;;7.32;;
15637;SDS011;26604;53.596;10.042;2022-11-14T11:28:32;10.48;;;6.72;;
15637;SDS011;26604;53.596;10.042;2022-11-14T11:31:00;10.52;;;6.65;;
15637;SDS011;26604;53.596;10.042;2022-11-14T11:33:30;10.73;;;6.97;;
15637;SDS011;26604;53.596;10.042;2022-11-14T11:35:58;12.65;;;6.97;;
15637;SDS011;26604;53.596;10.042;2022-11-14T11:38:29;13.98;;;7.45;;
15637;SDS011;26604;53.596;10.042;2022-11-14T11:40:59;14.50;;;7.00;;
15637;SDS011;26604;53.596;10.042;2022-11-14T11:43:35;12.23;;;7.50;;
15637;SDS011;26604;53.596;10.042;2022-11-14T11:46:09;10.73;;;6.68;;
15637;SDS011;26604;53.596;10.042;2022-11-14T11:48:40;11.60;;;7.72;;
15637;SDS011;26604;53.596;10.042;2022-11-14T11:51:10;10.82;;;7.35;;
15637;SDS011;26604;53.596;10.042;2022-11-14T11:53:42;9.45;;;6.93;;
15637;SDS011;26604;53.596;10.042;2022-11-14T11:56:13;14.15;;;7.07;;
15637;SDS011;26604;53.596;10.042;2022-11-14T11:58:44;13.60;;;7.13;;
15637;SDS011;26604;53.596;10.042;2022-11-14T12:01:14;11.48;;;6.63;;
15637;SDS011;26604;53.596;10.042;2022-11-14T12:03:41;14.65;;;7.10;;
15637;SDS011;26604;53.596;10.042;2022-11-14T12:06:13;9.27;;;6.30;;
15637;SDS011;26604;53.596;10.042;2022-11-14T12:08:47;11.50;;;6.88;;
15637;SDS011;26604;53.596;10.042;2022-11-14T12:11:26;9.32;;;6.65;;
15637;SDS011;26604;53.596;10.042;2022-11-14T12:14:04;9.90;;;6.93;;
15637;SDS011;26604;53.596;10.042;2022-11-14T12:17:05;11.10;;;6.40;;
15637;SDS011;26604;53.596;10.042;2022-11-14T12:19:58;11.73;;;6.70;;
15637;SDS011;26604;53.596;10.042;2022-11-14T12:22:54;10.88;;;6.63;;
15637;SDS011;26604;53.596;10.042;2022-11-14T12:25:45;10.00;;;6.70;;
15637;SDS011;26604;53.596;10.042;2022-11-14T12:28:34;12.43;;;6.57;;
15637;SDS011;26604;53.596;10.042;2022-11-14T12:31:24;11.15;;;6.22;;
15637;SDS011;26604;53.596;10.042;2022-11-14T12:33:55;11.45;;;7.35;;
15637;SDS011;26604;53.596;10.042;2022-11-14T12:36:26;9.25;;;6.32;;
15637;SDS011;26604;53.596;10.042;2022-11-14T12:38:55;11.95;;;6.45;;
15637;SDS011;26604;53.596;10.042;2022-11-14T12:41:25;12.35;;;6.93;;
15637;SDS011;26604;53.596;10.042;2022-11-14T12:43:54;10.73;;;6.47;;
15637;SDS011;26604;53.596;10.042;2022-11-14T12:47:10;14.48;;;7.03;;
15637;SDS011;26604;53.596;10.042;2022-11-14T12:52:42;9.65;;;6.90;;
15637;SDS011;26604;53.596;10.042;2022-11-14T12:58:18;11.70;;;6.30;;
15637;SDS011;26604;53.596;10.042;2022-11-14T13:01:09;10.07;;;6.20;;
15637;SDS011;26604;53.596;10.042;2022-11-14T13:04:14;10.80;;;6.25;;
15637;SDS011;26604;53.596;10.042;2022-11-14T13:06:51;10.70;;;6.70;;
15637;SDS011;26604;53.596;10.042;2022-11-14T13:09:37;11.18;;;6.57;;
15637;SDS011;26604;53.596;10.042;2022-11-14T13:12:25;9.40;;;6.32;;
15637;SDS011;26604;53.596;10.042;2022-11-14T13:15:24;12.15;;;6.72;;
15637;SDS011;26604;53.596;10.042;2022-11-14T13:18:14;10.45;;;6.72;;
15637;SDS011;26604;53.596;10.042;2022-11-14T13:24:05;9.90;;;6.38;;
15637;SDS011;26604;53.596;10.042;2022-11-14T13:29:49;9.60;;;6.45;;
15637;SDS011;26604;53.596;10.042;2022-11-14T13:35:46;15.80;;;6.82;;
15637;SDS011;26604;53.596;10.042;2022-11-14T13:50:40;20.02;;;7.72;;
15637;SDS011;26604;53.596;10.042;2022-11-14T13:53:13;10.48;;;7.00;;
15637;SDS011;26604;53.596;10.042;2022-11-14T13:55:47;12.65;;;6.53;;
15637;SDS011;26604;53.596;10.042;2022-11-14T13:58:35;10.80;;;6.70;;
15637;SDS011;26604;53.596;10.042;2022-11-14T14:01:35;13.57;;;6.72;;
15637;SDS011;26604;53.596;10.042;2022-11-14T14:04:16;10.85;;;6.78;;
15637;SDS011;26604;53.596;10.042;2022-11-14T14:06:56;13.55;;;6.78;;
15637;SDS011;26604;53.596;10.042;2022-11-14T14:09:36;15.52;;;7.20;;
15637;SDS011;26604;53.596;10.042;2022-11-14T14:12:13;14.85;;;7.20;;
15637;SDS011;26604;53.596;10.042;2022-11-14T14:14:54;11.95;;;7.05;;
15637;SDS011;26604;53.596;10.042;2022-11-14T14:17:29;13.45;;;6.57;;
15637;SDS011;26604;53.596;10.042;2022-11-14T14:20:04;11.63;;;6.03;;
15637;SDS011;26604;53.596;10.042;2022-11-14T14:22:44;13.25;;;6.95;;
15637;SDS011;26604;53.596;10.042;2022-11-14T14:25:24;14.45;;;7.55;;
15637;SDS011;26604;53.596;10.042;2022-11-14T14:27:59;11.80;;;6.57;;
15637;SDS011;26604;53.596;10.042;2022-11-14T14:30:34;13.55;;;6.97;;
15637;SDS011;26604;53.596;10.042;2022-11-14T14:33:02;12.13;;;6.68;;
15637;SDS011;26604;53.596;10.042;2022-11-14T14:35:36;14.07;;;6.65;;
15637;SDS011;26604;53.596;10.042;2022-11-14T14:38:08;11.27;;;6.30;;
15637;SDS011;26604;53.596;10.042;2022-11-14T14:40:39;14.52;;;6.90;;
15637;SDS011;26604;53.596;10.042;2022-11-14T14:43:12;14.25;;;6.65;;
15637;SDS011;26604;53.596;10.042;2022-11-14T14:45:50;11.18;;;6.38;;
15637;SDS011;26604;53.596;10.042;2022-11-14T14:48:20;13.43;;;6.60;;
15637;SDS011;26604;53.596;10.042;2022-11-14T14:50:49;9.73;;;6.70;;
15637;SDS011;26604;53.596;10.042;2022-11-14T14:53:18;14.82;;;8.20;;
15637;SDS011;26604;53.596;10.042;2022-11-14T14:55:51;14.85;;;7.88;;
15637;SDS011;26604;53.596;10.042;2022-11-14T14:58:23;10.82;;;7.10;;
15637;SDS011;26604;53.596;10.042;2022-11-14T15:00:54;15.45;;;6.85;;
15637;SDS011;26604;53.596;10.042;2022-11-14T15:03:23;12.73;;;6.82;;
15637;SDS011;26604;53.596;10.042;2022-11-14T15:05:56;14.52;;;7.30;;
15637;SDS011;26604;53.596;10.042;2022-11-14T15:08:24;11.55;;;6.25;;
15637;SDS011;26604;53.596;10.042;2022-11-14T15:10:55;15.02;;;6.95;;
15637;SDS011;26604;53.596;10.042;2022-11-14T15:13:24;11.80;;;6.93;;